»·PEaware :: N6423L L88-KSBP

N6423L :: L88-KSBP

FLIGHT INFORMATION

Flight Status: Arrived
Operator: Privately registered:
United States
More flights under this callsign
Pilot: Alexander M. (19327)
Aircraft: CESSNA 172 SKYHAWK
(C172)
More flights by this aircraft type
Origin: L88 New Cuyama
United States
Destination: KSBP San Luis Co Regl
United States
More flights between these airports :: More routes between these airports
Route: DCT
File this flight plan on PilotEdge
Remarks: Pilotedge CAT-01 Rating...on stream! twitch.tv / allaboutflight
Altitude:
(Current/Filed)
11,500ft
Speed:
(Current/Filed)
115kts
Departed: 09-Oct-18 07:54 PM
Arrived: 09-Oct-18 08:27 PM
Distance/Time
Traveled:
51nm/0:32
Distance/Time
To Go:
Arrived

Flight Plot

Page will automatically refresh every two minutes.


Map Options




Map Legend


Flown Route
Filed Route
Departure Airport
Arrival Airport
Navaid (VOR, NDB)
Fix

Horizontal Profiles

Position Reports

Time Latitude Longitude Heading Altitude Ground
Speed
09-Oct-18 19:47 34.942866 -119.690279 204 2153ft 0kts
09-Oct-18 19:48 34.942866 -119.690279 204 2153ft 0kts
09-Oct-18 19:49 34.942866 -119.690279 204 2153ft 0kts
09-Oct-18 19:50 34.942749 -119.691219 202 2150ft 0kts
09-Oct-18 19:51 34.942027 -119.690639 117 2152ft 15kts
09-Oct-18 19:52 34.939273 -119.683959 115 2179ft 18kts
09-Oct-18 19:53 34.937576 -119.679934 110 2193ft 3kts
09-Oct-18 19:54 34.937673 -119.679957 293 2193ft 0kts
09-Oct-18 19:55 34.937673 -119.679957 293 2193ft 0kts
09-Oct-18 19:56 34.949528 -119.707432 295 3007ft 119kts
09-Oct-18 19:57 34.955106 -119.728957 278 3911ft 119kts
09-Oct-18 19:58 34.962779 -119.757278 293 4852ft 133kts
09-Oct-18 19:59 34.978928 -119.807282 289 5088ft 168kts
09-Oct-18 20:00 34.997584 -119.868437 291 5820ft 160kts
09-Oct-18 20:01 35.010706 -119.910456 291 6384ft 158kts
09-Oct-18 20:02 35.026340 -119.960406 292 7027ft 157kts
09-Oct-18 20:03 35.041871 -120.010086 292 7642ft 156kts
09-Oct-18 20:04 35.057235 -120.059261 292 8215ft 154kts
09-Oct-18 20:05 35.072438 -120.108253 292 8757ft 154kts
09-Oct-18 20:06 35.087603 -120.157093 293 9272ft 154kts
09-Oct-18 20:07 35.102246 -120.204184 293 9748ft 154kts
09-Oct-18 20:08 35.116134 -120.248984 294 10195ft 154kts
09-Oct-18 20:09 35.131248 -120.297783 294 10660ft 154kts
09-Oct-18 20:10 35.146327 -120.346551 295 11107ft 155kts
09-Oct-18 20:11 35.160488 -120.392300 294 11500ft 151kts
09-Oct-18 20:12 35.176267 -120.443475 294 11472ft 167kts
09-Oct-18 20:13 35.188606 -120.483586 294 11471ft 169kts
09-Oct-18 20:14 35.202275 -120.528330 297 11297ft 100kts
09-Oct-18 20:15 35.210811 -120.563856 249 10529ft 124kts
09-Oct-18 20:16 35.185400 -120.551065 100 10260ft 126kts
09-Oct-18 20:17 35.192415 -120.516803 51 9839ft 115kts
09-Oct-18 20:18 35.210478 -120.486582 53 9399ft 73kts
09-Oct-18 20:19 35.220766 -120.470037 354 7206ft 116kts
09-Oct-18 20:20 35.246204 -120.448411 152 4576ft 174kts
09-Oct-18 20:21 35.213524 -120.426028 162 3718ft 139kts
09-Oct-18 20:22 35.203896 -120.455930 275 3534ft 108kts
09-Oct-18 20:23 35.206248 -120.490857 278 3852ft 111kts
09-Oct-18 20:24 35.207403 -120.529656 282 2099ft 110kts
09-Oct-18 20:25 35.208304 -120.568336 267 1243ft 119kts
09-Oct-18 20:26 35.213036 -120.599254 309 948ft 91kts
09-Oct-18 20:27 35.227067 -120.622913 307 504ft 83kts
09-Oct-18 20:28 35.238327 -120.642507 303 181ft 48kts
09-Oct-18 20:29 35.241402 -120.646843 39 164ft 0kts
09-Oct-18 20:30 35.241215 -120.645711 124 169ft 8kts
09-Oct-18 20:31 35.241492 -120.645448 278 169ft 0kts
09-Oct-18 20:32 35.241492 -120.645448 278 169ft 0kts
09-Oct-18 20:33 35.241492 -120.645448 278 169ft 0kts
09-Oct-18 20:34 35.241492 -120.645448 278 169ft 0kts
09-Oct-18 20:35 35.241492 -120.645448 278 169ft 0kts
09-Oct-18 20:36 35.241492 -120.645448 278 169ft 0kts
09-Oct-18 20:37 35.241492 -120.645448 278 169ft 0kts
09-Oct-18 20:38 35.241492 -120.645448 278 169ft 0kts
09-Oct-18 20:39 35.241076 -120.645468 120 170ft 8kts
09-Oct-18 20:40 35.238826 -120.641693 122 183ft 14kts
09-Oct-18 20:41 35.236583 -120.637530 125 198ft 15kts
09-Oct-18 20:42 35.235370 -120.635421 127 205ft 10kts
09-Oct-18 20:43 35.234134 -120.633876 218 207ft 0kts
09-Oct-18 20:44 35.242678 -120.650473 308 672ft 115kts

Navigation Log

Ident Type
1. L88 Airport
2. KSBP Airport